Time;durP1;ratioP1;P1;durP2;ratioP2;P2;SDS_P1;SDS_P2;PMS_P1;PMS_P2;Temp;Humidity;BMP_temperature;BMP_pressure;BME280_temperature;BME280_humidity;BME280_pressure;Samples;Min_cycle;Max_cycle;Signal;HPM_P1;HPM_P2
2022/09/21 00:00:29;;;;;;;5.37;3.93;;;;;;;11.51;100.00;148932.25;5112955;28;20274;-60
2022/09/21 00:02:58;;;;;;;7.10;3.03;;;;;;;11.92;100.00;149034.81;5112958;28;20203;-60
2022/09/21 00:05:25;;;;;;;7.60;3.53;;;;;;;12.00;100.00;149056.31;5113037;28;20184;-60
2022/09/21 00:07:52;;;;;;;4.03;3.70;;;;;;;12.11;100.00;149084.16;5113143;28;20183;-60
2022/09/21 00:10:20;;;;;;;4.07;3.77;;;;;;;11.99;100.00;149053.78;5113106;28;20195;-60
2022/09/21 00:12:47;;;;;;;9.13;4.53;;;;;;;12.31;100.00;149134.75;5112583;28;20187;-61
2022/09/21 00:15:17;;;;;;;4.40;4.20;;;;;;;12.40;100.00;149155.00;5112351;28;20257;-60
2022/09/21 00:17:45;;;;;;;5.57;4.77;;;;;;;12.43;100.00;149162.63;5112543;28;20234;-61
2022/09/21 00:20:13;;;;;;;5.10;4.70;;;;;;;12.48;100.00;149175.25;5112682;28;20187;-59
2022/09/21 00:22:40;;;;;;;5.13;4.67;;;;;;;12.41;100.00;149158.81;5112963;28;20199;-60
2022/09/21 00:25:08;;;;;;;7.27;4.90;;;;;;;12.45;100.00;149167.69;5112595;28;20187;-61
2022/09/21 00:27:36;;;;;;;5.20;4.80;;;;;;;12.53;100.00;149187.94;5112481;28;20187;-59
2022/09/21 00:30:06;;;;;;;5.07;4.67;;;;;;;12.59;100.00;149204.41;5112153;28;20187;-60
2022/09/21 00:32:35;;;;;;;4.90;4.50;;;;;;;12.47;100.00;149172.75;5112396;28;20190;-59
2022/09/21 00:35:03;;;;;;;4.93;4.50;;;;;;;12.52;100.00;149185.44;5112805;28;20213;-60
2022/09/21 00:37:31;;;;;;;6.47;4.87;;;;;;;12.47;100.00;149172.75;5112483;28;20199;-60
2022/09/21 00:39:58;;;;;;;7.67;5.40;;;;;;;12.23;100.00;149114.50;5112720;28;20564;-59
2022/09/21 00:42:27;;;;;;;5.10;4.80;;;;;;;12.18;100.00;149101.84;5112537;28;20263;-59
2022/09/21 00:44:55;;;;;;;8.63;5.07;;;;;;;12.32;100.00;149137.31;5112231;28;20179;-59
2022/09/21 00:47:25;;;;;;;14.70;5.23;;;;;;;12.36;100.00;149147.44;5112257;28;20197;-59
2022/09/21 00:49:54;;;;;;;5.80;5.40;;;;;;;12.25;100.00;149119.59;5112149;28;20183;-59
2022/09/21 00:52:24;;;;;;;5.83;5.40;;;;;;;12.22;100.00;149110.75;5112598;28;20195;-60
2022/09/21 00:54:55;;;;;;;5.77;5.43;;;;;;;12.30;100.00;149132.25;5112066;28;20219;-59
2022/09/21 00:57:25;;;;;;;6.00;5.37;;;;;;;12.14;100.00;149091.72;5112179;28;20187;-59
2022/09/21 00:59:55;;;;;;;6.03;5.47;;;;;;;12.11;100.00;149082.88;5112106;28;20278;-61
2022/09/21 01:02:23;;;;;;;6.67;5.70;;;;;;;12.23;100.00;149114.50;5112077;28;20373;-60
2022/09/21 01:04:53;;;;;;;5.80;5.50;;;;;;;12.15;100.00;149094.25;5111990;28;20175;-59
2022/09/21 01:07:25;;;;;;;6.53;6.17;;;;;;;11.75;100.00;148993.06;5111981;28;20183;-60
2022/09/21 01:09:57;;;;;;;6.63;6.10;;;;;;;11.70;100.00;148981.63;5111928;28;20191;-60
2022/09/21 01:12:45;;;;;;;10.37;6.90;;;;;;;11.63;100.00;148962.59;5111861;28;20237;-59
2022/09/21 01:15:24;;;;;;;7.83;7.20;;;;;;;11.69;100.00;148977.81;5112201;28;20211;-59
2022/09/21 01:17:59;;;;;;;7.50;7.00;;;;;;;11.63;100.00;148962.59;5111823;28;20230;-60
2022/09/21 01:20:43;;;;;;;9.30;8.40;;;;;;;11.53;100.00;148938.59;5111873;28;20214;-59
2022/09/21 01:23:28;;;;;;;13.60;7.70;;;;;;;11.72;100.00;148985.44;5112154;28;20202;-59
2022/09/21 01:26:07;;;;;;;11.37;8.43;;;;;;;11.56;100.00;148944.91;5111839;28;20230;-60
2022/09/21 01:29:08;;;;;;;10.70;8.00;;;;;;;11.68;100.00;148976.53;5111933;28;20184;-60
2022/09/21 01:31:39;;;;;;;8.03;7.43;;;;;;;11.77;100.00;148998.09;5111773;28;20184;-60
2022/09/21 01:34:15;;;;;;;8.37;7.73;;;;;;;11.64;100.00;148965.16;5111666;28;20199;-60
2022/09/21 01:36:45;;;;;;;8.33;7.60;;;;;;;11.85;100.00;149019.59;5112047;28;20564;-59
2022/09/21 01:39:14;;;;;;;8.83;7.93;;;;;;;11.79;100.00;149004.44;5111719;28;20278;-60
2022/09/21 01:41:43;;;;;;;8.07;7.40;;;;;;;11.73;100.00;148987.97;5115148;28;20187;-59
2022/09/21 01:44:18;;;;;;;10.90;7.40;;;;;;;11.89;100.00;149029.72;5115705;28;20198;-60
2022/09/21 01:46:47;;;;;;;9.23;8.47;;;;;;;11.94;100.00;149041.13;5115993;28;20606;-60
2022/09/21 01:49:19;;;;;;;9.90;8.57;;;;;;;11.84;100.00;149015.78;5115938;28;20593;-59
2022/09/21 01:51:51;;;;;;;9.83;9.10;;;;;;;11.82;100.00;149010.75;5115621;28;20195;-59
2022/09/21 01:54:23;;;;;;;13.33;9.07;;;;;;;11.94;100.00;149041.13;5115475;28;20210;-60
2022/09/21 01:56:55;;;;;;;10.70;9.70;;;;;;;11.82;100.00;149012.03;5115478;28;20198;-59
2022/09/21 01:59:31;;;;;;;9.90;9.10;;;;;;;11.85;100.00;149018.34;5115236;28;20195;-59
2022/09/21 02:02:03;;;;;;;13.40;10.30;;;;;;;11.90;100.00;149032.25;5115701;28;20183;-60
2022/09/21 02:04:30;;;;;;;10.10;9.07;;;;;;;11.92;100.00;149036.06;5115379;28;20179;-59
2022/09/21 02:06:57;;;;;;;17.60;9.43;;;;;;;11.81;100.00;149009.47;5115247;28;20185;-59
2022/09/21 02:09:25;;;;;;;12.30;9.10;;;;;;;11.92;100.00;149036.06;5115538;28;20554;-60
2022/09/21 02:11:52;;;;;;;11.33;9.40;;;;;;;11.78;100.00;149000.63;5115419;28;20579;-59
2022/09/21 02:14:25;;;;;;;10.97;9.50;;;;;;;11.43;100.00;148913.28;5115069;28;20229;-60
2022/09/21 02:17:01;;;;;;;10.37;9.37;;;;;;;11.29;100.00;148879.13;5115089;28;20240;-60
2022/09/21 02:19:37;;;;;;;10.20;9.23;;;;;;;11.31;100.00;148884.22;5114913;28;20226;-60
2022/09/21 02:22:07;;;;;;;10.37;9.53;;;;;;;11.49;100.00;148928.47;5115237;28;20188;-59
2022/09/21 02:24:40;;;;;;;10.40;8.40;;;;;;;11.54;100.00;148939.88;5115188;28;20565;-59
2022/09/21 02:27:14;;;;;;;13.73;8.93;;;;;;;11.50;100.00;148930.97;5114892;28;20271;-58
2022/09/21 02:29:50;;;;;;;9.20;8.40;;;;;;;11.57;100.00;148947.44;5115163;28;20681;-59
2022/09/21 02:32:25;;;;;;;9.27;8.47;;;;;;;11.60;100.00;148955.03;5114984;28;20179;-59
2022/09/21 02:34:58;;;;;;;11.83;7.77;;;;;;;11.69;100.00;148977.81;5114970;28;20211;-59
2022/09/21 02:37:32;;;;;;;8.60;8.00;;;;;;;11.50;100.00;148930.97;5115043;28;20201;-59
2022/09/21 02:40:08;;;;;;;9.40;8.43;;;;;;;11.48;100.00;148924.69;5114581;28;20182;-59
2022/09/21 02:42:41;;;;;;;9.17;7.77;;;;;;;11.49;100.00;148928.47;5114491;28;20179;-59
2022/09/21 02:45:14;;;;;;;9.30;8.33;;;;;;;11.46;100.00;148922.13;5114421;28;20203;-60
2022/09/21 02:47:47;;;;;;;10.30;7.63;;;;;;;11.52;100.00;148936.06;5114487;28;20240;-59
2022/09/21 02:50:20;;;;;;;8.33;7.53;;;;;;;11.27;100.00;148874.09;5114382;28;20190;-59
2022/09/21 02:52:49;;;;;;;8.17;7.77;;;;;;;11.17;100.00;148847.50;5114290;28;20189;-60
2022/09/21 02:55:17;;;;;;;8.33;7.70;;;;;;;11.09;100.00;148827.28;5096635;28;20199;-59
2022/09/21 02:57:47;;;;;;;10.97;8.07;;;;;;;10.69;100.00;148727.44;5114613;28;20601;-60
2022/09/21 03:00:17;;;;;;;10.97;7.90;;;;;;;10.74;100.00;148741.28;5114273;28;20187;-59
2022/09/21 03:02:45;;;;;;;8.77;7.97;;;;;;;10.72;100.00;148735.00;5114523;28;20187;-60
2022/09/21 03:05:14;;;;;;;9.93;7.53;;;;;;;10.74;100.00;148740.03;5114462;28;20611;-59
2022/09/21 03:07:41;;;;;;;8.60;8.20;;;;;;;10.68;100.00;148726.16;5114095;28;20183;-59
2022/09/21 03:10:09;;;;;;;14.37;8.30;;;;;;;10.67;100.00;146433.75;5114438;28;20508;-59
2022/09/21 03:12:37;;;;;;;8.50;7.83;;;;;;;10.70;100.00;144167.00;5114487;28;20638;-59
2022/09/21 03:15:04;;;;;;;8.87;8.03;;;;;;;10.61;100.00;135386.06;5114178;28;20553;-60
2022/09/21 03:17:33;;;;;;;12.30;8.30;;;;;;;10.58;100.00;131059.84;5114096;28;20735;-60
2022/09/21 03:20:01;;;;;;;8.40;7.80;;;;;;;10.58;100.00;124425.09;5114214;28;20652;-60
2022/09/21 03:22:28;;;;;;;10.83;8.03;;;;;;;10.64;100.00;123112.22;5114391;28;20191;-59
2022/09/21 03:24:56;;;;;;;8.33;7.53;;;;;;;10.67;100.00;124776.72;5113725;28;20290;-60
2022/09/21 03:27:24;;;;;;;8.57;7.77;;;;;;;10.67;100.00;115837.28;5113952;28;20783;-60
2022/09/21 03:29:51;;;;;;;8.83;8.13;;;;;;;10.79;100.00;113877.09;5113731;28;20639;-60
2022/09/21 03:32:18;;;;;;;16.20;10.40;;;;;;;10.92;100.00;108945.53;5113671;28;20226;-59
2022/09/21 03:34:46;;;;;;;31.63;11.20;;;;;;;10.90;100.00;108612.66;5113511;28;20203;-59
2022/09/21 03:37:13;;;;;;;17.53;8.77;;;;;;;10.40;100.00;108191.25;5113694;28;20187;-59
2022/09/21 03:39:40;;;;;;;8.60;7.90;;;;;;;10.25;100.00;94670.28;5113890;28;20183;-59
2022/09/21 03:42:08;;;;;;;8.87;7.80;;;;;;;10.14;100.00;83505.38;5113102;28;20281;-59
2022/09/21 03:44:36;;;;;;;8.70;7.47;;;;;;;10.21;100.00;76974.31;5113498;28;20179;-60
2022/09/21 03:47:05;;;;;;;9.77;8.47;;;;;;;10.17;100.00;73704.00;5113352;28;20675;-59
2022/09/21 03:49:32;;;;;;;12.20;8.43;;;;;;;10.16;100.00;73049.34;5113619;28;20183;-60
2022/09/21 03:52:01;;;;;;;11.17;7.83;;;;;;;9.89;100.00;71059.38;5113293;28;20184;-61
2022/09/21 03:54:28;;;;;;;14.47;9.30;;;;;;;9.83;100.00;67793.81;5113172;28;20210;-59
2022/09/21 03:56:55;;;;;;;12.40;8.67;;;;;;;9.90;100.00;64546.47;5113131;28;20185;-59
2022/09/21 03:59:21;;;;;;;8.47;7.77;;;;;;;9.94;100.00;62273.75;5095082;28;20194;-61
2022/09/21 04:01:48;;;;;;;11.70;8.27;;;;;;;10.04;100.00;60659.19;5112977;28;20194;-60
2022/09/21 04:04:15;;;;;;;15.73;8.93;;;;;;;9.95;100.00;60649.19;5112685;28;20274;-60
2022/09/21 04:06:45;;;;;;;13.07;7.63;;;;;;;10.00;100.00;59679.88;5112965;28;20183;-60
2022/09/21 04:09:13;;;;;;;15.60;8.73;;;;;;;10.17;100.00;62298.00;5112760;28;20198;-60
2022/09/21 04:11:40;;;;;;;10.37;7.67;;;;;;;10.20;100.00;62627.13;5112842;28;20654;-59
2022/09/21 04:14:07;;;;;;;13.40;7.80;;;;;;;10.39;100.00;63623.75;5112738;28;20179;-60
2022/09/21 04:16:34;;;;;;;18.27;8.27;;;;;;;10.50;100.00;66893.63;5094586;28;20212;-60
2022/09/21 04:19:01;;;;;;;11.23;7.83;;;;;;;10.47;100.00;70803.47;5112619;28;20227;-60
2022/09/21 04:21:28;;;;;;;13.17;7.97;;;;;;;10.80;100.00;75416.69;5112541;28;20262;-58
2022/09/21 04:23:55;;;;;;;11.03;7.93;;;;;;;11.02;100.00;88879.50;5112894;28;20210;-60
2022/09/21 04:26:26;;;;;;;12.63;7.80;;;;;;;11.19;100.00;99759.47;5112605;28;20184;-59
2022/09/21 04:28:54;;;;;;;13.00;7.93;;;;;;;11.17;100.00;123222.22;5112983;28;20187;-59
2022/09/21 04:31:22;;;;;;;7.60;7.10;;;;;;;11.94;100.00;136872.22;5112101;28;20180;-60
2022/09/21 04:33:50;;;;;;;9.97;6.90;;;;;;;12.87;100.00;149272.75;5112448;28;20194;-60
2022/09/21 04:36:18;;;;;;;6.60;6.30;;;;;;;13.82;100.00;149510.97;5112608;28;20294;-48
2022/09/21 04:38:44;;;;;;;7.33;6.20;;;;;;;14.36;100.00;149647.91;5112399;28;20188;-61
2022/09/21 04:41:12;;;;;;;5.87;5.37;;;;;;;15.00;100.00;149808.97;5112757;28;20215;-59
2022/09/21 04:43:42;;;;;;;9.23;5.47;;;;;;;15.78;100.00;150004.44;5112466;28;20618;-60
2022/09/21 04:46:11;;;;;;;5.80;5.40;;;;;;;16.07;100.00;150075.50;5112306;28;20183;-59
2022/09/21 04:48:39;;;;;;;5.30;4.83;;;;;;;16.53;100.00;150192.31;5112393;28;20278;-61
2022/09/21 04:51:07;;;;;;;4.77;4.53;;;;;;;16.29;100.00;150131.38;5112512;28;20553;-60
2022/09/21 04:53:35;;;;;;;5.07;4.77;;;;;;;16.90;100.00;150286.34;5112029;28;20183;-59
2022/09/21 04:56:03;;;;;;;5.13;4.63;;;;;;;16.65;100.00;150221.56;5112076;28;20260;-60
2022/09/21 04:58:31;;;;;;;4.87;4.57;;;;;;;16.72;100.00;150239.38;5112213;28;20191;-60
2022/09/21 05:00:59;;;;;;;5.23;4.90;;;;;;;16.40;100.00;150159.28;5112408;28;20590;-60
2022/09/21 05:03:26;;;;;;;4.60;4.30;;;;;;;17.30;100.00;150385.44;5112626;28;20585;-59
2022/09/21 05:05:55;;;;;;;4.47;4.27;;;;;;;17.92;100.00;150541.78;5112360;28;20604;-59
2022/09/21 05:10:01;;;;;;;4.67;4.20;;;;;;;18.45;100.00;150674.03;5111926;28;20202;-60
2022/09/21 05:11:11;;;;;;;6.70;4.07;;;;;;;18.81;100.00;150764.34;5111779;28;20194;-59
2022/09/21 05:13:39;;;;;;;4.40;4.00;;;;;;;19.57;100.00;150957.81;5112130;28;20254;-60
2022/09/21 05:16:08;;;;;;;5.53;4.30;;;;;;;18.96;100.00;150802.56;5114143;28;20207;-61
2022/09/21 05:18:35;;;;;;;6.33;4.17;;;;;;;18.99;100.00;150811.44;5116093;28;20263;-60
2022/09/21 05:21:03;;;;;;;5.10;4.53;;;;;;;18.69;100.00;150736.41;5116406;28;20308;-60
2022/09/21 05:23:31;;;;;;;4.50;4.10;;;;;;;18.96;100.00;150803.81;5116577;28;20198;-60
2022/09/21 05:25:59;;;;;;;6.77;3.70;;;;;;;19.90;100.00;151039.31;5116142;28;20186;-61
2022/09/21 05:28:27;;;;;;;6.17;4.37;;;;;;;20.42;100.00;151170.47;5116148;28;20523;-60
2022/09/21 05:31:00;;;;;;;3.90;3.60;;;;;;;19.36;100.00;150903.03;5116199;28;20184;-60
2022/09/21 05:33:30;;;;;;;3.47;3.17;;;;;;;19.37;100.00;150906.88;5116155;28;20184;-59
2022/09/21 05:36:07;;;;;;;3.87;3.67;;;;;;;18.94;100.00;150797.44;5115934;28;20743;-60
2022/09/21 05:38:35;;;;;;;3.63;3.30;;;;;;;18.99;100.00;150810.16;5115879;28;20625;-61
2022/09/21 05:41:02;;;;;;;4.03;3.80;;;;;;;19.46;100.00;150928.56;5115752;28;20215;-61
2022/09/21 05:43:30;;;;;;;4.80;3.73;;;;;;;19.42;100.00;150919.59;5115963;28;20190;-61
2022/09/21 05:46:05;;;;;;;24.53;4.40;;;;;;;19.39;100.00;150911.94;5115579;28;20296;-61
2022/09/21 05:48:40;;;;;;;13.50;3.50;;;;;;;19.79;100.00;151011.28;5115632;28;20178;-61
2022/09/21 05:51:17;;;;;;;3.27;2.83;;;;;;;19.34;100.00;150899.25;5115678;28;20190;-61
2022/09/21 05:53:52;;;;;;;5.50;2.33;;;;;;;18.88;100.00;150782.19;5115658;28;20542;-60
2022/09/21 05:56:33;;;;;;;3.23;2.20;;;;;;;19.14;100.00;150849.59;5115165;28;20199;-60
2022/09/21 05:59:11;;;;;;;5.60;2.30;;;;;;;19.12;100.00;150843.25;5115447;28;20255;-60
2022/09/21 06:01:52;;;;;;;9.10;2.50;;;;;;;19.14;100.00;150848.31;5115394;28;20622;-61
2022/09/21 06:04:21;;;;;;;4.43;3.20;;;;;;;19.28;100.00;150883.97;5115119;28;20187;-60
2022/09/21 06:06:48;;;;;;;5.73;2.87;;;;;;;19.09;100.00;150835.63;5115061;28;20187;-61
2022/09/21 06:09:15;;;;;;;3.13;2.50;;;;;;;19.26;100.00;150877.63;5114935;28;20187;-61
2022/09/21 06:11:42;;;;;;;2.63;2.50;;;;;;;19.29;100.00;150886.50;5115247;28;20296;-61
2022/09/21 06:14:09;;;;;;;6.13;2.63;;;;;;;19.31;100.00;150891.56;5115185;28;20187;-61
2022/09/21 06:16:39;;;;;;;7.07;3.40;;;;;;;20.06;100.00;151080.03;5114991;28;20669;-61
2022/09/21 06:19:06;;;;;;;3.43;2.30;;;;;;;20.29;100.00;151138.63;5114711;28;20554;-61
2022/09/21 06:21:35;;;;;;;5.47;1.83;;;;;;;21.12;96.43;151347.59;5101394;28;20192;-62
2022/09/21 06:24:02;;;;;;;1.60;1.50;;;;;;;21.65;91.99;151480.09;5086128;28;20295;-62
2022/09/21 06:26:29;;;;;;;4.53;1.85;;;;;;;22.14;87.59;151605.09;5092338;28;20181;-59
2022/09/21 06:28:56;;;;;;;1.60;1.50;;;;;;;22.67;83.34;151738.97;5092991;28;20188;-59
2022/09/21 06:31:23;;;;;;;3.75;1.50;;;;;;;22.67;78.94;151738.97;5075359;28;20200;-58
2022/09/21 06:33:50;;;;;;;2.00;1.70;;;;;;;22.89;77.48;151792.59;5094798;28;20291;-58
2022/09/21 06:36:17;;;;;;;2.88;1.77;;;;;;;22.76;76.78;151760.69;5093114;28;20212;-60
2022/09/21 06:38:52;;;;;;;4.63;1.25;;;;;;;23.05;73.75;151833.41;5093313;28;20600;-59
2022/09/21 06:41:19;;;;;;;2.78;1.30;;;;;;;23.54;69.96;151957.25;5108398;28;20203;-58
2022/09/21 06:43:46;;;;;;;1.10;1.10;;;;;;;23.84;66.79;152033.84;5114187;28;20207;-58
2022/09/21 06:46:13;;;;;;;2.17;0.95;;;;;;;23.63;65.37;151980.22;5114273;28;20180;-59
2022/09/21 06:48:40;;;;;;;2.30;0.93;;;;;;;23.51;65.28;151949.56;5114286;28;20187;-59
2022/09/21 06:51:07;;;;;;;2.60;1.13;;;;;;;23.81;62.99;152026.13;5114416;28;20187;-61
2022/09/21 06:53:35;;;;;;;3.67;1.42;;;;;;;23.32;66.76;151902.31;5114601;28;20187;-60
2022/09/21 06:56:04;;;;;;;0.90;0.90;;;;;;;23.31;65.51;151898.47;5114685;28;20208;-60
2022/09/21 06:58:33;;;;;;;1.73;1.10;;;;;;;23.67;63.59;151990.44;5114440;28;20198;-61
2022/09/21 07:01:05;;;;;;;0.98;0.98;;;;;;;23.49;63.28;151945.75;5104035;28;20519;-61
2022/09/21 07:03:32;;;;;;;3.05;1.10;;;;;;;23.94;63.70;152058.06;5077721;28;20215;-61
2022/09/21 07:05:59;;;;;;;1.33;1.20;;;;;;;23.59;63.52;151970.03;5095159;28;20244;-59
2022/09/21 07:08:26;;;;;;;2.25;1.10;;;;;;;23.65;63.11;151985.31;5097656;28;20207;-60
2022/09/21 07:10:53;;;;;;;0.80;0.80;;;;;;;23.52;62.95;151953.41;5080665;28;20211;-60
2022/09/21 07:13:21;;;;;;;2.13;1.02;;;;;;;23.17;64.87;151865.28;5073621;28;20180;-59
2022/09/21 07:15:48;;;;;;;4.32;1.70;;;;;;;23.10;63.56;151847.44;5073101;28;20208;-59
2022/09/21 07:18:16;;;;;;;4.00;1.38;;;;;;;23.51;64.66;151950.84;5073155;28;20236;-60
2022/09/21 07:20:43;;;;;;;3.35;1.70;;;;;;;23.89;62.90;152045.31;5076228;28;20602;-59
2022/09/21 07:23:11;;;;;;;1.13;1.10;;;;;;;24.31;62.42;152151.34;5084703;28;20196;-59
2022/09/21 07:25:38;;;;;;;3.03;1.05;;;;;;;24.51;60.27;152203.69;5099396;28;20195;-59
2022/09/21 07:28:08;;;;;;;2.08;0.90;;;;;;;24.20;57.89;152124.50;5092872;28;20279;-61
2022/09/21 07:30:37;;;;;;;1.38;0.80;;;;;;;24.13;59.19;152107.88;5075694;28;20195;-60
2022/09/21 07:33:05;;;;;;;1.85;1.30;;;;;;;24.10;59.66;152098.94;5092225;28;20184;-60
2022/09/21 07:35:32;;;;;;;2.63;1.00;;;;;;;23.71;60.43;152000.66;5091202;28;20297;-61
2022/09/21 07:38:00;;;;;;;3.95;1.20;;;;;;;23.21;62.29;151875.50;5111711;28;20231;-60
2022/09/21 07:40:28;;;;;;;2.75;1.20;;;;;;;23.66;63.58;151987.88;5086188;28;20429;-59
2022/09/21 07:42:58;;;;;;;2.13;1.98;;;;;;;23.75;61.66;152010.84;5090658;28;20200;-59
2022/09/21 07:45:25;;;;;;;2.67;1.17;;;;;;;23.18;62.11;151866.56;5084056;28;20647;-60
2022/09/21 07:47:53;;;;;;;1.10;1.10;;;;;;;23.06;63.06;151837.25;5073055;28;20648;-60
2022/09/21 07:50:20;;;;;;;3.67;1.45;;;;;;;22.99;65.41;151819.41;5073057;28;20528;-60
2022/09/21 07:52:47;;;;;;;4.25;1.45;;;;;;;22.91;65.04;151799.00;5073727;28;20199;-59
2022/09/21 07:55:15;;;;;;;1.60;1.50;;;;;;;22.80;65.00;151769.63;5105652;28;20245;-60
2022/09/21 08:00:28;;;;;;;3.13;1.02;;;;;;;23.49;60.82;151945.75;5085616;28;20191;-60
2022/09/21 08:02:56;;;;;;;1.10;1.10;;;;;;;23.59;60.73;151971.25;5091913;28;20220;-59
2022/09/21 08:05:23;;;;;;;1.25;1.20;;;;;;;23.82;60.00;152027.41;5072075;28;20235;-59
2022/09/21 08:07:51;;;;;;;0.77;0.77;;;;;;;23.78;59.35;152017.22;5072866;28;20180;-59
2022/09/21 08:10:18;;;;;;;0.80;0.80;;;;;;;23.98;59.31;152069.53;5109098;28;20203;-60
2022/09/21 08:12:46;;;;;;;0.70;0.70;;;;;;;23.92;58.04;152054.25;5112844;28;20227;-60
2022/09/21 08:15:13;;;;;;;0.98;0.98;;;;;;;23.91;58.49;152051.69;5113578;28;20532;-61
2022/09/21 08:17:40;;;;;;;4.22;1.60;;;;;;;23.80;59.18;152022.34;5112336;28;21419;-60
2022/09/21 08:20:10;;;;;;;5.57;2.83;;;;;;;23.92;59.24;152054.25;5111553;28;20187;-61
2022/09/21 08:22:37;;;;;;;0.85;0.85;;;;;;;23.99;57.89;152070.81;5083814;28;20658;-60
2022/09/21 08:25:04;;;;;;;1.25;1.15;;;;;;;24.10;59.37;152100.16;5092304;28;20188;-62
2022/09/21 08:27:31;;;;;;;1.00;1.00;;;;;;;24.54;56.51;152211.31;5081660;28;20230;-60
2022/09/21 08:29:58;;;;;;;4.38;0.95;;;;;;;24.64;55.36;152235.59;5071700;28;20214;-61
2022/09/21 08:32:25;;;;;;;1.25;1.15;;;;;;;24.33;55.45;152156.41;5075739;28;20188;-61
2022/09/21 08:34:52;;;;;;;1.17;1.10;;;;;;;24.34;56.01;152160.25;5092753;28;20184;-61
2022/09/21 08:37:21;;;;;;;1.73;1.63;;;;;;;24.49;55.06;152197.25;5092282;28;20215;-60
2022/09/21 08:39:48;;;;;;;1.00;1.00;;;;;;;24.48;54.15;152194.75;5092018;28;20195;-61
2022/09/21 08:42:34;;;;;;;0.95;0.95;;;;;;;24.44;54.01;152184.53;5092494;28;20626;-60
2022/09/21 08:45:06;;;;;;;1.65;0.90;;;;;;;24.49;54.86;152198.56;5091898;28;20623;-61
2022/09/21 08:47:38;;;;;;;0.93;0.90;;;;;;;24.48;54.78;152194.75;5091971;28;20191;-60
2022/09/21 08:50:23;;;;;;;1.45;0.90;;;;;;;24.67;54.54;152243.25;5091105;28;20192;-60
2022/09/21 08:53:01;;;;;;;1.90;1.17;;;;;;;25.29;55.11;152400.41;5084242;28;20250;-61
2022/09/21 08:55:28;;;;;;;2.08;1.00;;;;;;;25.98;51.38;152574.28;5091647;28;20204;-60
2022/09/21 08:57:55;;;;;;;0.98;0.80;;;;;;;26.74;48.91;152767.38;5091346;28;20295;-62
2022/09/21 09:00:23;;;;;;;0.60;0.60;;;;;;;27.68;45.38;153004.13;5091348;28;20676;-62
2022/09/21 09:03:16;;;;;;;1.95;0.93;;;;;;;28.55;44.04;153225.66;5091262;28;20642;-61
2022/09/21 09:05:52;;;;;;;0.70;0.70;;;;;;;29.33;42.38;153421.66;5091586;28;20219;-61
2022/09/21 09:08:54;;;;;;;0.93;0.80;;;;;;;29.50;41.14;153466.50;5070616;28;20200;-62
2022/09/21 09:11:44;;;;;;;1.67;1.35;;;;;;;29.60;40.99;153489.56;5085563;28;20308;-61
2022/09/21 09:14:27;;;;;;;0.60;0.60;;;;;;;27.72;41.31;153014.38;5087722;28;20331;-61
2022/09/21 09:17:11;;;;;;;2.08;0.93;;;;;;;27.24;43.83;152892.81;5080018;28;20294;-61
2022/09/21 09:19:42;;;;;;;0.80;0.80;;;;;;;26.87;45.07;152799.41;5075279;28;20231;-61
2022/09/21 09:22:17;;;;;;;0.68;0.68;;;;;;;26.02;45.49;152583.22;5071421;28;20667;-61
2022/09/21 09:24:51;;;;;;;0.70;0.70;;;;;;;26.42;46.58;152684.28;5088533;28;20211;-61
2022/09/21 09:27:23;;;;;;;2.25;0.68;;;;;;;27.60;43.62;152984.97;5091777;28;20188;-61
2022/09/21 09:29:59;;;;;;;0.82;0.75;;;;;;;28.35;40.67;153174.41;5084607;28;20196;-61
2022/09/21 09:32:34;;;;;;;3.60;0.80;;;;;;;29.15;40.76;153376.81;5074655;28;20235;-61
2022/09/21 09:35:07;;;;;;;0.70;0.70;;;;;;;29.43;38.82;153447.28;5087377;28;20285;-61
2022/09/21 09:37:52;;;;;;;1.20;1.10;;;;;;;29.86;39.20;153556.19;5109419;28;20204;-61
2022/09/21 09:40:31;;;;;;;1.33;0.68;;;;;;;30.12;36.90;153622.88;5096700;28;20635;-62
2022/09/21 09:43:07;;;;;;;0.70;0.70;;;;;;;29.67;37.52;153507.47;5110374;28;20187;-61
2022/09/21 09:45:44;;;;;;;1.92;0.88;;;;;;;29.28;37.89;153410.06;5109634;28;20690;-62
2022/09/21 09:48:27;;;;;;;1.35;0.57;;;;;;;28.31;37.87;153164.16;5109357;28;20184;-61
2022/09/21 09:50:54;;;;;;;0.60;0.60;;;;;;;28.48;38.89;153207.69;5109767;28;20214;-59
2022/09/21 09:53:25;;;;;;;0.60;0.60;;;;;;;29.45;38.09;153452.44;5110897;28;20176;-61
2022/09/21 09:55:55;;;;;;;2.50;0.70;;;;;;;30.42;36.48;153697.22;5111275;28;20191;-61
2022/09/21 09:58:24;;;;;;;0.73;0.70;;;;;;;29.17;37.06;153381.91;5111790;28;20388;-61
2022/09/21 10:00:53;;;;;;;0.82;0.60;;;;;;;28.72;38.11;153267.94;5111447;28;20183;-60
2022/09/21 10:03:21;;;;;;;0.90;0.52;;;;;;;29.15;38.04;153375.53;5115438;28;20187;-61
2022/09/21 10:05:50;;;;;;;0.50;0.50;;;;;;;28.82;37.22;153293.53;5102667;28;20641;-61
2022/09/21 10:08:42;;;;;;;0.55;0.55;;;;;;;28.05;38.63;153098.84;5115786;28;20194;-61
2022/09/21 10:11:12;;;;;;;0.75;0.75;;;;;;;27.48;41.76;152954.25;5115060;28;20183;-61
2022/09/21 10:13:41;;;;;;;1.15;0.60;;;;;;;26.92;40.38;152810.91;5114956;28;20197;-60
2022/09/21 10:16:14;;;;;;;1.08;0.90;;;;;;;26.79;40.28;152780.19;5109708;28;20230;-61
2022/09/21 10:18:46;;;;;;;0.57;0.57;;;;;;;28.06;38.14;153101.41;5124848;27;20234;-61
2022/09/21 10:21:19;;;;;;;1.45;0.60;;;;;;;29.33;37.01;153422.94;5135395;27;20224;-61
2022/09/21 10:23:49;;;;;;;0.88;0.88;;;;;;;30.11;35.54;153620.31;5135884;27;20546;-62
2022/09/21 10:26:19;;;;;;;0.50;0.50;;;;;;;30.60;33.88;153744.66;5126813;27;20203;-62
2022/09/21 10:28:57;;;;;;;0.60;0.60;;;;;;;30.75;33.23;153783.16;5103359;28;20196;-61
2022/09/21 10:31:26;;;;;;;1.85;0.45;;;;;;;29.95;34.20;153579.31;5094046;28;20191;-61
2022/09/21 10:34:04;;;;;;;0.70;0.70;;;;;;;28.28;35.59;153156.50;5112802;28;20652;-61
2022/09/21 10:36:33;;;;;;;0.75;0.60;;;;;;;25.34;40.70;152413.19;5111677;27;20243;-60
2022/09/21 10:39:23;;;;;;;1.40;0.52;;;;;;;24.85;43.02;152287.97;5110079;28;20295;-60
2022/09/21 10:41:56;;;;;;;1.35;0.68;;;;;;;24.03;44.60;152081.03;5118795;27;20194;-60
2022/09/21 10:44:26;;;;;;;3.28;0.80;;;;;;;23.54;46.29;151957.25;5124223;27;20200;-61
2022/09/21 10:46:54;;;;;;;1.45;1.35;;;;;;;22.78;48.40;151765.81;5114361;27;20290;-61
2022/09/21 10:49:24;;;;;;;1.65;1.30;;;;;;;22.26;51.08;151634.41;5110941;28;20561;-60
2022/09/21 10:51:56;;;;;;;1.60;1.50;;;;;;;22.32;51.89;151650.97;5114327;28;20206;-60
2022/09/21 10:54:27;;;;;;;10.00;1.40;;;;;;;21.83;54.74;151526.00;5114410;28;20187;-61
2022/09/21 10:57:01;;;;;;;1.10;1.10;;;;;;;21.26;55.63;151382.00;5113664;28;20203;-61
2022/09/21 10:59:30;;;;;;;1.02;1.02;;;;;;;21.48;57.20;151436.75;5105792;28;20248;-59
2022/09/21 11:01:58;;;;;;;1.77;1.20;;;;;;;21.67;58.86;151485.22;5094468;28;20204;-60
2022/09/21 11:04:34;;;;;;;1.63;1.20;;;;;;;21.50;60.66;151441.88;5112847;28;20218;-60
2022/09/21 11:07:09;;;;;;;0.95;0.90;;;;;;;21.01;63.51;151319.47;5118413;27;20194;-61
2022/09/21 11:09:43;;;;;;;0.90;0.90;;;;;;;20.67;69.62;151232.84;5115953;27;20669;-60
2022/09/21 11:12:25;;;;;;;11.20;1.55;;;;;;;20.76;74.08;151255.78;5113295;27;20225;-61
2022/09/21 11:14:59;;;;;;;2.45;1.45;;;;;;;20.80;74.04;151265.97;5111584;28;20202;-61
2022/09/21 11:17:35;;;;;;;4.20;1.30;;;;;;;20.63;76.20;151223.94;5114050;28;20224;-60
2022/09/21 11:20:14;;;;;;;1.95;1.17;;;;;;;20.43;79.05;151173.00;5113542;28;20191;-62
2022/09/21 11:22:47;;;;;;;2.57;1.20;;;;;;;20.55;83.92;151202.28;5114294;28;20686;-61
2022/09/21 11:25:29;;;;;;;1.35;0.98;;;;;;;20.40;85.53;151166.66;5113822;28;20279;-60
2022/09/21 11:28:14;;;;;;;7.57;1.83;;;;;;;20.03;100.00;151072.34;5108188;27;20625;-61
2022/09/21 11:31:02;;;;;;;5.17;1.40;;;;;;;19.37;100.00;150905.59;5113406;28;20193;-64
2022/09/21 11:33:42;;;;;;;2.93;2.03;;;;;;;18.82;100.00;150766.91;5095027;28;20204;-60
2022/09/21 11:36:17;;;;;;;5.23;2.13;;;;;;;18.43;100.00;150668.94;5093444;28;20270;-61
2022/09/21 11:38:56;;;;;;;6.63;2.47;;;;;;;18.20;100.00;150611.75;5093550;28;20729;-61